Time;durP1;ratioP1;P1;durP2;ratioP2;P2;SDS_P1;SDS_P2;PMS_P1;PMS_P2;Temp;Humidity;BMP_temperature;BMP_pressure;BME280_temperature;BME280_humidity;BME280_pressure;Samples;Min_cycle;Max_cycle;Signal;HPM_P1;HPM_P2
2022/04/25 00:00:10;;;;;;;0.50;0.40;;;8.00;99.90;;;;;;5037101;28;20687;-82
2022/04/25 00:02:38;;;;;;;0.50;0.40;;;7.90;99.90;;;;;;5109722;23;20232;-79
2022/04/25 00:05:06;;;;;;;0.50;0.40;;;7.90;99.90;;;;;;5071162;28;20202;-77
2022/04/25 00:07:32;;;;;;;0.50;0.40;;;7.90;99.90;;;;;;5077323;28;20190;-80
2022/04/25 00:09:59;;;;;;;0.50;0.40;;;7.90;99.90;;;;;;5078269;28;20567;-79
2022/04/25 00:12:26;;;;;;;1.00;0.77;;;7.90;99.90;;;;;;5063747;28;20211;-79
2022/04/25 00:14:52;;;;;;;0.50;0.40;;;7.80;99.90;;;;;;5057056;28;20195;-79
2022/04/25 00:17:19;;;;;;;0.50;0.40;;;7.90;99.90;;;;;;5055082;28;20196;-78
2022/04/25 00:19:47;;;;;;;0.50;0.40;;;7.90;99.90;;;;;;5056749;28;20198;-79
2022/04/25 00:22:14;;;;;;;0.50;0.40;;;7.80;99.90;;;;;;5056177;28;20210;-80
2022/04/25 00:24:44;;;;;;;0.50;0.40;;;7.80;99.90;;;;;;5056663;28;20194;-79
2022/04/25 00:27:11;;;;;;;0.50;0.50;;;7.80;99.90;;;;;;5056188;28;20195;-79
2022/04/25 00:29:37;;;;;;;0.60;0.40;;;7.80;99.90;;;;;;5056456;28;20190;-79
2022/04/25 00:32:06;;;;;;;0.50;0.40;;;7.90;99.90;;;;;;5053542;28;20221;-78
2022/04/25 00:34:33;;;;;;;0.50;0.40;;;7.90;99.90;;;;;;5056210;28;20210;-77
2022/04/25 00:37:01;;;;;;;0.50;0.40;;;7.90;99.90;;;;;;5056327;28;20652;-75
2022/04/25 00:39:28;;;;;;;0.50;0.40;;;7.80;99.90;;;;;;5055966;28;20206;-76
2022/04/25 00:41:56;;;;;;;0.50;0.40;;;7.80;99.90;;;;;;5055396;28;20584;-77
2022/04/25 00:44:22;;;;;;;0.50;0.40;;;7.80;99.90;;;;;;5054792;28;20210;-76
2022/04/25 00:46:51;;;;;;;0.50;0.40;;;7.80;99.90;;;;;;5055579;28;20199;-77
2022/04/25 00:49:18;;;;;;;0.50;0.40;;;7.80;99.90;;;;;;5055392;28;20253;-77
2022/04/25 00:51:46;;;;;;;0.50;0.40;;;7.80;99.90;;;;;;5055925;28;20221;-76
2022/04/25 00:54:15;;;;;;;0.50;0.40;;;7.80;99.90;;;;;;5057074;28;20317;-78
2022/04/25 00:56:42;;;;;;;0.50;0.40;;;7.70;99.90;;;;;;5055759;28;20552;-78
2022/04/25 00:59:09;;;;;;;0.50;0.40;;;7.70;99.90;;;;;;5054852;28;20203;-77
2022/04/25 01:01:36;;;;;;;0.50;0.40;;;7.70;99.90;;;;;;5055336;28;20227;-77
2022/04/25 01:04:04;;;;;;;0.50;0.40;;;7.70;99.90;;;;;;5054640;28;20591;-77
2022/04/25 01:06:31;;;;;;;0.50;0.40;;;7.70;99.90;;;;;;5054119;28;20202;-78
2022/04/25 01:08:58;;;;;;;0.50;0.40;;;7.70;99.90;;;;;;5054339;28;20195;-78
2022/04/25 01:11:27;;;;;;;0.50;0.40;;;7.80;99.90;;;;;;5060297;28;20228;-77
2022/04/25 01:13:53;;;;;;;0.57;0.40;;;7.80;99.90;;;;;;5056022;28;20217;-78
2022/04/25 01:16:20;;;;;;;0.50;0.40;;;7.70;99.90;;;;;;5056498;28;20207;-79
2022/04/25 01:18:47;;;;;;;0.50;0.40;;;7.70;99.90;;;;;;5055398;28;20202;-76
2022/04/25 01:21:15;;;;;;;1.42;0.52;;;7.70;99.90;;;;;;5055176;28;20703;-77
2022/04/25 01:29:28;;;;;;;0.50;0.47;;;7.70;99.90;;;;;;5014717;28;20665;-77
2022/04/25 01:31:54;;;;;;;0.50;0.40;;;7.70;99.90;;;;;;5039126;28;20222;-77
2022/04/25 01:34:21;;;;;;;0.50;0.40;;;7.70;99.90;;;;;;5053723;28;20190;-78
2022/04/25 01:36:48;;;;;;;0.50;0.40;;;7.80;99.90;;;;;;5053236;28;20198;-77
2022/04/25 01:39:16;;;;;;;0.50;0.40;;;7.80;99.90;;;;;;5052841;28;20217;-78
2022/04/25 01:41:44;;;;;;;1.13;1.13;;;7.80;99.90;;;;;;5052618;28;20225;-77
2022/04/25 01:44:11;;;;;;;0.50;0.40;;;7.90;99.90;;;;;;5052833;28;20211;-77
2022/04/25 01:46:38;;;;;;;0.50;0.40;;;7.80;99.90;;;;;;5052827;28;20199;-78
2022/04/25 01:49:05;;;;;;;0.50;0.40;;;7.80;99.90;;;;;;5057336;28;20198;-78
2022/04/25 01:51:32;;;;;;;0.50;0.40;;;7.80;99.90;;;;;;5062328;28;20218;-79
2022/04/25 01:53:59;;;;;;;0.50;0.40;;;7.80;99.90;;;;;;5062978;28;20902;-80
2022/04/25 01:56:28;;;;;;;0.50;0.40;;;7.80;99.90;;;;;;5059083;28;20210;-79
2022/04/25 01:58:54;;;;;;;0.50;0.40;;;7.80;99.90;;;;;;5051630;28;20217;-79
2022/04/25 02:01:21;;;;;;;0.50;0.40;;;7.80;99.90;;;;;;5051404;28;20296;-79
2022/04/25 02:03:48;;;;;;;0.50;0.40;;;7.80;99.90;;;;;;5051396;28;20237;-78
2022/04/25 02:06:15;;;;;;;0.50;0.40;;;7.80;99.90;;;;;;5052737;28;20213;-76
2022/04/25 02:08:42;;;;;;;0.50;0.40;;;7.90;99.90;;;;;;5052112;28;20195;-77
2022/04/25 02:13:54;;;;;;;0.50;0.40;;;7.90;99.90;;;;;;5057292;28;20182;-78
2022/04/25 02:16:22;;;;;;;0.50;0.40;;;7.80;99.90;;;;;;5057988;28;20210;-77
2022/04/25 02:18:49;;;;;;;0.50;0.40;;;7.80;99.90;;;;;;5056925;28;20200;-77
2022/04/25 02:21:16;;;;;;;0.50;0.40;;;7.80;99.90;;;;;;5057240;28;20222;-78
2022/04/25 02:23:43;;;;;;;0.50;0.40;;;7.80;99.90;;;;;;5056420;28;20215;-78
2022/04/25 02:26:10;;;;;;;0.50;0.40;;;7.80;99.90;;;;;;5056576;28;20202;-78
2022/04/25 02:28:38;;;;;;;0.50;0.40;;;7.90;99.90;;;;;;5054734;28;20336;-79
2022/04/25 02:31:08;;;;;;;0.50;0.40;;;7.90;99.90;;;;;;5055275;28;20196;-79
2022/04/25 02:33:36;;;;;;;1.42;1.33;;;7.80;99.90;;;;;;5055651;28;20201;-78
2022/04/25 02:36:04;;;;;;;0.50;0.40;;;7.90;99.90;;;;;;5055458;28;20202;-77
2022/04/25 02:38:31;;;;;;;0.50;0.40;;;7.90;99.90;;;;;;5055771;28;20198;-77
2022/04/25 02:41:08;;;;;;;0.50;0.40;;;7.90;99.90;;;;;;5057249;28;20198;-77
2022/04/25 02:43:37;;;;;;;0.50;0.40;;;7.90;99.90;;;;;;5058063;28;20214;-77
2022/04/25 02:46:06;;;;;;;0.50;0.40;;;8.00;99.90;;;;;;5057452;28;20226;-76
2022/04/25 02:48:35;;;;;;;0.50;0.40;;;7.90;99.90;;;;;;5057404;28;20245;-78
2022/04/25 02:51:03;;;;;;;2.88;2.78;;;7.90;99.90;;;;;;5057631;28;20191;-77
2022/04/25 02:53:31;;;;;;;0.50;0.40;;;7.90;99.90;;;;;;5057746;28;20214;-77
2022/04/25 02:55:58;;;;;;;0.50;0.40;;;7.90;99.90;;;;;;5058179;28;20194;-77
2022/04/25 02:58:26;;;;;;;0.50;0.40;;;8.00;99.90;;;;;;5057025;28;20191;-77
2022/04/25 03:00:53;;;;;;;0.50;0.40;;;8.00;99.90;;;;;;5057670;28;20198;-76
2022/04/25 03:03:21;;;;;;;0.50;0.40;;;8.00;99.90;;;;;;5057294;28;20576;-76
2022/04/25 03:05:50;;;;;;;0.50;0.40;;;8.00;99.90;;;;;;5058071;28;20199;-77
2022/04/25 03:08:19;;;;;;;3.42;3.13;;;7.90;99.90;;;;;;5057223;28;20304;-76
2022/04/25 03:10:47;;;;;;;0.50;0.40;;;7.90;99.90;;;;;;5057678;28;20256;-77
2022/04/25 03:13:15;;;;;;;0.50;0.40;;;7.90;99.90;;;;;;5057425;28;20711;-76
2022/04/25 03:15:42;;;;;;;0.50;0.40;;;7.90;99.90;;;;;;5057482;28;20199;-76
2022/04/25 03:18:10;;;;;;;0.50;0.40;;;7.90;99.90;;;;;;5056832;28;20205;-77
2022/04/25 03:20:37;;;;;;;0.50;0.40;;;8.00;99.90;;;;;;5056900;28;20195;-77
2022/04/25 03:23:06;;;;;;;0.50;0.40;;;8.10;99.90;;;;;;5056517;28;20223;-76
2022/04/25 03:25:33;;;;;;;0.50;0.40;;;8.10;99.90;;;;;;5058056;28;20240;-76
2022/04/25 03:27:59;;;;;;;0.50;0.40;;;8.20;99.90;;;;;;5055869;28;20194;-77
2022/04/25 03:30:26;;;;;;;0.50;0.40;;;8.10;99.90;;;;;;5056730;28;20564;-77
2022/04/25 03:32:53;;;;;;;0.50;0.40;;;8.10;99.90;;;;;;5056825;28;20218;-76
2022/04/25 03:35:22;;;;;;;0.50;0.40;;;8.10;99.90;;;;;;5056823;28;20197;-77
2022/04/25 03:37:50;;;;;;;0.50;0.40;;;8.10;99.90;;;;;;5056791;28;20206;-77
2022/04/25 03:40:19;;;;;;;0.50;0.40;;;8.20;99.90;;;;;;5056944;28;20202;-78
2022/04/25 03:42:46;;;;;;;0.50;0.40;;;8.20;99.90;;;;;;5056532;28;20630;-77
2022/04/25 03:45:16;;;;;;;0.50;0.40;;;8.10;99.90;;;;;;5056579;28;20218;-77
2022/04/25 03:47:43;;;;;;;0.50;0.40;;;8.10;99.90;;;;;;5055188;28;20258;-78
2022/04/25 03:50:11;;;;;;;0.50;0.40;;;8.10;99.90;;;;;;5055881;28;20205;-77
2022/04/25 03:52:40;;;;;;;0.50;0.40;;;8.10;99.90;;;;;;5056021;28;20302;-78
2022/04/25 03:57:55;;;;;;;0.50;0.40;;;8.10;99.90;;;;;;5037229;28;20544;-78
2022/04/25 04:00:23;;;;;;;0.50;0.40;;;8.20;99.90;;;;;;5055955;28;20211;-78
2022/04/25 04:02:50;;;;;;;0.60;0.60;;;8.30;99.90;;;;;;5056081;28;20619;-79
2022/04/25 04:05:17;;;;;;;0.57;0.57;;;8.30;99.90;;;;;;5054299;28;20220;-78
2022/04/25 04:07:45;;;;;;;0.50;0.40;;;8.30;99.90;;;;;;5054328;28;20195;-77
2022/04/25 04:10:11;;;;;;;0.50;0.40;;;8.20;99.90;;;;;;5054102;28;20195;-78
2022/04/25 04:12:38;;;;;;;0.50;0.40;;;8.10;99.90;;;;;;5053578;28;20217;-79
2022/04/25 04:15:08;;;;;;;0.75;0.65;;;8.10;99.90;;;;;;5072237;28;20213;-81
2022/04/25 04:17:35;;;;;;;0.50;0.40;;;8.10;99.90;;;;;;5071653;28;20198;-80
2022/04/25 04:20:03;;;;;;;0.50;0.40;;;8.20;99.90;;;;;;5065816;28;20195;-77
2022/04/25 04:22:31;;;;;;;0.50;0.40;;;8.30;99.90;;;;;;5055164;28;20635;-77
2022/04/25 04:25:01;;;;;;;0.50;0.40;;;8.20;99.90;;;;;;5055810;28;20221;-77
2022/04/25 04:27:31;;;;;;;0.50;0.40;;;8.20;99.90;;;;;;5055150;28;20199;-76
2022/04/25 04:29:58;;;;;;;0.50;0.40;;;8.20;99.90;;;;;;5057079;28;20198;-77
2022/04/25 04:32:29;;;;;;;0.50;0.40;;;8.20;99.90;;;;;;5054875;28;20577;-76
2022/04/25 04:34:56;;;;;;;0.50;0.40;;;8.20;99.90;;;;;;5054046;28;20197;-78
2022/04/25 04:37:22;;;;;;;0.50;0.40;;;8.20;99.90;;;;;;5054184;28;20206;-77
2022/04/25 04:39:49;;;;;;;0.50;0.40;;;8.20;99.90;;;;;;5054169;28;20664;-77
2022/04/25 04:42:16;;;;;;;0.50;0.40;;;8.30;99.90;;;;;;5054346;28;20223;-77
2022/04/25 04:44:43;;;;;;;0.50;0.40;;;8.40;99.90;;;;;;5054252;28;20218;-77
2022/04/25 04:47:10;;;;;;;0.73;0.70;;;8.40;99.90;;;;;;5055049;28;20203;-77
2022/04/25 04:49:38;;;;;;;0.50;0.40;;;8.50;99.90;;;;;;5053558;28;20657;-77
2022/04/25 04:52:05;;;;;;;0.50;0.40;;;8.50;99.90;;;;;;5053851;28;20247;-78
2022/04/25 04:54:32;;;;;;;0.50;0.40;;;8.50;99.90;;;;;;5053482;28;20563;-78
2022/04/25 04:56:59;;;;;;;0.50;0.40;;;8.50;99.90;;;;;;5053390;28;20203;-78
2022/04/25 04:59:26;;;;;;;0.50;0.40;;;8.50;99.90;;;;;;5053161;28;20196;-77
2022/04/25 05:01:52;;;;;;;0.50;0.40;;;8.50;99.90;;;;;;5054167;28;20231;-76
2022/04/25 05:04:19;;;;;;;0.50;0.40;;;8.60;99.90;;;;;;5055425;28;20538;-77
2022/04/25 05:06:47;;;;;;;0.50;0.40;;;8.50;99.90;;;;;;5052627;28;20203;-79
2022/04/25 05:09:14;;;;;;;0.50;0.40;;;8.50;99.90;;;;;;5051676;28;20192;-79
2022/04/25 05:11:43;;;;;;;0.50;0.40;;;8.60;99.90;;;;;;5052808;28;20214;-76
2022/04/25 05:14:10;;;;;;;0.50;0.40;;;8.60;99.90;;;;;;5052470;28;20676;-77
2022/04/25 05:16:37;;;;;;;0.50;0.40;;;8.60;99.90;;;;;;5052294;28;20194;-77
2022/04/25 05:19:04;;;;;;;0.50;0.40;;;8.60;99.90;;;;;;5051974;28;20198;-77
2022/04/25 05:21:31;;;;;;;0.50;0.50;;;8.60;99.90;;;;;;5052393;28;20211;-76
2022/04/25 05:23:59;;;;;;;0.50;0.40;;;8.60;99.90;;;;;;5051946;28;20576;-77
2022/04/25 05:26:25;;;;;;;0.50;0.40;;;8.60;99.90;;;;;;5052451;28;20190;-77
2022/04/25 05:28:52;;;;;;;0.50;0.40;;;8.60;99.90;;;;;;5051079;28;20289;-78
2022/04/25 05:31:19;;;;;;;0.50;0.40;;;8.60;99.90;;;;;;5052210;28;20215;-78
2022/04/25 05:33:46;;;;;;;1.50;1.45;;;8.70;99.90;;;;;;5052313;28;20197;-77
2022/04/25 05:36:12;;;;;;;0.50;0.40;;;8.80;99.90;;;;;;5051652;28;20198;-77
2022/04/25 05:38:39;;;;;;;0.70;0.70;;;8.80;99.90;;;;;;5050901;28;20192;-77
2022/04/25 05:41:09;;;;;;;0.50;0.40;;;8.90;99.90;;;;;;5051870;28;20688;-76
2022/04/25 05:43:36;;;;;;;0.50;0.40;;;9.00;99.90;;;;;;5052154;28;20183;-78
2022/04/25 05:46:03;;;;;;;0.50;0.40;;;9.00;99.90;;;;;;5050549;28;20219;-77
2022/04/25 05:53:58;;;;;;;0.50;0.40;;;9.00;99.90;;;;;;5051655;28;20197;-77
2022/04/25 05:56:27;;;;;;;0.50;0.38;;;9.00;99.90;;;;;;5051732;28;20187;-78
2022/04/25 05:58:53;;;;;;;0.80;0.80;;;9.00;99.90;;;;;;5051696;28;20206;-77
2022/04/25 06:01:20;;;;;;;0.50;0.40;;;8.90;99.90;;;;;;5051241;28;20229;-78
2022/04/25 06:03:47;;;;;;;0.50;0.40;;;8.90;99.90;;;;;;5053175;28;20206;-77
2022/04/25 06:06:14;;;;;;;0.50;0.40;;;8.90;99.90;;;;;;5051326;28;20220;-76
2022/04/25 06:08:41;;;;;;;0.50;0.40;;;8.90;99.90;;;;;;5052372;28;20273;-78
2022/04/25 06:11:08;;;;;;;0.50;0.40;;;9.00;99.90;;;;;;5053801;28;20850;-78
2022/04/25 06:13:36;;;;;;;0.50;0.40;;;9.00;99.90;;;;;;5053386;28;20226;-78
2022/04/25 06:16:02;;;;;;;0.50;0.40;;;8.90;99.90;;;;;;5054009;28;20198;-77
2022/04/25 06:18:29;;;;;;;0.50;0.40;;;8.90;99.90;;;;;;5052885;28;20767;-78
2022/04/25 06:20:56;;;;;;;0.50;0.40;;;8.90;99.90;;;;;;5053525;28;20205;-77
2022/04/25 06:23:23;;;;;;;0.50;0.40;;;9.00;99.90;;;;;;5053684;28;20201;-78
2022/04/25 06:25:50;;;;;;;0.50;0.40;;;9.00;99.90;;;;;;5053888;28;20213;-78
2022/04/25 06:28:17;;;;;;;0.50;0.40;;;9.00;99.90;;;;;;5052744;28;20197;-78
2022/04/25 06:30:46;;;;;;;0.50;0.40;;;9.10;99.90;;;;;;5053644;28;20287;-78
2022/04/25 06:33:12;;;;;;;0.50;0.40;;;9.10;99.90;;;;;;5053274;28;20274;-78
2022/04/25 06:35:39;;;;;;;0.88;0.88;;;9.10;99.90;;;;;;5053555;28;20200;-77
2022/04/25 06:38:06;;;;;;;0.60;0.40;;;9.10;99.90;;;;;;5053206;28;20196;-77
2022/04/25 06:40:33;;;;;;;0.50;0.45;;;9.20;99.90;;;;;;5053912;28;20203;-78
2022/04/25 06:43:00;;;;;;;0.50;0.40;;;9.10;99.90;;;;;;5053445;28;20222;-77
2022/04/25 06:45:27;;;;;;;0.50;0.40;;;9.10;99.90;;;;;;5053464;28;20217;-77
2022/04/25 06:47:55;;;;;;;2.33;1.73;;;9.10;99.90;;;;;;5053574;28;20204;-78
2022/04/25 06:50:22;;;;;;;0.50;0.40;;;9.10;99.90;;;;;;5053760;28;20692;-79
2022/04/25 06:52:49;;;;;;;0.50;0.40;;;9.20;99.90;;;;;;5053042;28;20725;-77
2022/04/25 06:55:16;;;;;;;0.50;0.40;;;9.20;99.90;;;;;;5052571;28;20196;-78
2022/04/25 06:57:43;;;;;;;0.50;0.40;;;9.20;99.90;;;;;;5055036;28;20192;-78
2022/04/25 07:00:11;;;;;;;0.50;0.40;;;9.30;99.90;;;;;;5056745;28;20196;-78
2022/04/25 07:02:38;;;;;;;0.50;0.40;;;9.40;99.90;;;;;;5056231;28;20591;-78
2022/04/25 07:05:07;;;;;;;0.50;0.40;;;9.40;99.90;;;;;;5057483;28;20220;-79
2022/04/25 07:07:34;;;;;;;0.50;0.40;;;9.30;99.90;;;;;;5057407;28;20200;-78
2022/04/25 07:10:01;;;;;;;0.50;0.40;;;9.20;99.90;;;;;;5056614;28;20198;-78
2022/04/25 07:12:28;;;;;;;0.50;0.40;;;9.20;99.90;;;;;;5058054;28;20746;-77
2022/04/25 07:14:55;;;;;;;0.50;0.40;;;9.20;99.90;;;;;;5056502;28;20193;-76
2022/04/25 07:17:22;;;;;;;0.50;0.40;;;9.20;99.90;;;;;;5056370;28;20203;-77
2022/04/25 07:19:56;;;;;;;0.50;0.40;;;9.20;99.90;;;;;;5055818;28;20196;-74
2022/04/25 07:30:37;;;;;;;0.50;0.40;;;9.20;99.90;;;;;;5055195;28;20226;-78
2022/04/25 07:33:04;;;;;;;0.50;0.40;;;9.40;99.90;;;;;;5054514;28;20587;-77
2022/04/25 07:35:31;;;;;;;0.50;0.40;;;9.30;99.90;;;;;;5054556;28;20283;-78
2022/04/25 07:37:59;;;;;;;0.60;0.60;;;9.40;99.90;;;;;;5053931;28;20587;-78
2022/04/25 07:40:26;;;;;;;0.50;0.40;;;9.40;99.90;;;;;;5054423;28;20563;-78
2022/04/25 07:42:55;;;;;;;0.55;0.55;;;9.40;99.90;;;;;;5055122;28;20227;-76
2022/04/25 07:45:23;;;;;;;1.60;1.50;;;9.60;99.90;;;;;;5055356;28;20223;-76
2022/04/25 07:47:49;;;;;;;0.50;0.40;;;9.60;99.90;;;;;;5055661;28;20200;-76
2022/04/25 07:50:22;;;;;;;0.50;0.40;;;9.90;99.90;;;;;;5055978;28;20682;-76
2022/04/25 07:52:49;;;;;;;0.50;0.40;;;10.00;99.90;;;;;;5055224;28;20221;-77
2022/04/25 07:55:17;;;;;;;0.50;0.40;;;10.10;99.90;;;;;;5054597;28;20197;-77
2022/04/25 07:57:45;;;;;;;0.50;0.40;;;10.10;99.90;;;;;;5055292;28;20197;-76
2022/04/25 08:00:13;;;;;;;0.50;0.40;;;10.20;99.90;;;;;;5055394;28;20206;-77
2022/04/25 08:02:39;;;;;;;0.50;0.40;;;10.10;99.90;;;;;;5055277;28;20237;-77
2022/04/25 08:05:06;;;;;;;0.50;0.40;;;10.20;99.90;;;;;;5054800;28;20220;-77
2022/04/25 08:07:33;;;;;;;0.70;0.60;;;10.20;99.90;;;;;;5054653;28;20567;-76
2022/04/25 08:10:00;;;;;;;0.50;0.40;;;10.40;99.90;;;;;;5054454;28;20192;-76
2022/04/25 08:18:04;;;;;;;0.50;0.40;;;10.50;99.90;;;;;;5055040;28;20211;-78
2022/04/25 08:20:34;;;;;;;0.50;0.40;;;10.40;99.90;;;;;;5055889;28;20196;-77
2022/04/25 08:23:02;;;;;;;0.50;0.40;;;10.30;99.90;;;;;;5055149;28;20224;-77
2022/04/25 08:25:30;;;;;;;0.50;0.40;;;10.30;99.90;;;;;;5054975;28;20219;-78
2022/04/25 08:27:58;;;;;;;0.52;0.40;;;10.40;99.90;;;;;;5054258;28;20197;-77
2022/04/25 08:30:25;;;;;;;0.50;0.40;;;10.40;99.90;;;;;;5054330;28;20205;-77
2022/04/25 08:32:54;;;;;;;0.50;0.40;;;10.50;99.90;;;;;;5053994;28;20225;-77
2022/04/25 08:35:21;;;;;;;0.70;0.70;;;10.40;99.90;;;;;;5054451;28;20198;-76
2022/04/25 08:37:48;;;;;;;0.50;0.40;;;10.30;99.90;;;;;;5054316;28;20200;-78
2022/04/25 08:40:15;;;;;;;0.50;0.40;;;10.30;99.90;;;;;;5054252;28;20200;-77
2022/04/25 08:42:43;;;;;;;0.50;0.50;;;10.30;99.90;;;;;;5053940;28;20236;-77
2022/04/25 08:45:12;;;;;;;0.50;0.40;;;10.30;99.90;;;;;;5054300;28;20197;-77
2022/04/25 08:47:47;;;;;;;0.50;0.40;;;10.30;99.90;;;;;;5053586;28;20200;-77
2022/04/25 08:50:14;;;;;;;0.50;0.40;;;10.30;99.90;;;;;;5054494;28;20261;-77
2022/04/25 08:52:41;;;;;;;0.50;0.40;;;10.40;99.90;;;;;;5053285;28;20225;-76
2022/04/25 08:55:09;;;;;;;0.60;0.50;;;10.50;99.90;;;;;;5053635;28;20193;-76
2022/04/25 08:57:36;;;;;;;1.30;0.65;;;10.70;99.90;;;;;;5053248;28;20197;-76
2022/04/25 09:00:05;;;;;;;0.50;0.40;;;10.70;99.90;;;;;;5053592;28;20288;-77
2022/04/25 09:02:34;;;;;;;0.50;0.40;;;10.70;99.90;;;;;;5053321;28;20229;-76
2022/04/25 09:05:01;;;;;;;0.50;0.40;;;10.70;99.90;;;;;;5053928;28;20197;-76
2022/04/25 09:07:28;;;;;;;0.50;0.40;;;10.70;99.90;;;;;;5053373;28;20201;-77
2022/04/25 09:09:55;;;;;;;0.50;0.40;;;10.80;99.90;;;;;;5053192;28;20211;-76
2022/04/25 09:12:21;;;;;;;5.75;1.85;;;10.70;99.90;;;;;;5052796;28;20224;-77
2022/04/25 09:14:49;;;;;;;0.70;0.70;;;10.70;99.90;;;;;;5054322;28;20654;-77
2022/04/25 09:17:15;;;;;;;0.50;0.40;;;10.50;99.90;;;;;;5052874;28;20201;-77
2022/04/25 09:19:44;;;;;;;0.50;0.40;;;10.40;99.90;;;;;;5052775;28;20284;-78
2022/04/25 09:22:11;;;;;;;0.50;0.40;;;10.30;99.90;;;;;;5052867;28;20213;-78
2022/04/25 09:24:45;;;;;;;0.50;0.40;;;10.30;99.90;;;;;;5052835;28;20198;-76
2022/04/25 09:27:16;;;;;;;0.50;0.40;;;10.30;99.90;;;;;;5053130;28;20235;-78
2022/04/25 09:29:43;;;;;;;0.50;0.40;;;10.40;99.90;;;;;;5053264;28;20271;-78
2022/04/25 09:32:10;;;;;;;0.70;0.70;;;10.40;99.90;;;;;;5055310;28;20224;-79
2022/04/25 09:37:43;;;;;;;0.50;0.40;;;10.50;99.90;;;;;;5065748;28;20227;-78
2022/04/25 09:40:10;;;;;;;0.50;0.40;;;10.70;99.90;;;;;;5061959;28;20185;-78
2022/04/25 09:42:37;;;;;;;0.50;0.40;;;11.00;99.90;;;;;;5052666;28;20217;-78
2022/04/25 09:45:06;;;;;;;3.67;2.70;;;11.50;99.90;;;;;;5053193;28;20220;-79
2022/04/25 09:47:34;;;;;;;0.75;0.75;;;12.00;99.90;;;;;;5052537;28;20260;-78
2022/04/25 09:50:03;;;;;;;0.50;0.40;;;12.70;99.90;;;;;;5055403;28;20225;-78
2022/04/25 09:52:32;;;;;;;0.50;0.40;;;13.40;99.90;;;;;;5054530;28;20221;-76
2022/04/25 09:55:11;;;;;;;0.60;0.40;;;13.60;99.90;;;;;;5054715;28;20206;-78
2022/04/25 09:57:37;;;;;;;0.50;0.37;;;13.40;99.90;;;;;;5053517;28;20178;-78
2022/04/25 10:00:06;;;;;;;0.50;0.40;;;13.60;99.90;;;;;;5053794;28;20467;-77
2022/04/25 10:02:33;;;;;;;0.50;0.40;;;13.40;99.90;;;;;;5053282;28;20229;-78
2022/04/25 10:05:11;;;;;;;0.50;0.40;;;13.50;99.90;;;;;;5054006;28;20448;-78
2022/04/25 10:07:41;;;;;;;1.70;1.60;;;13.60;99.90;;;;;;5053529;28;20218;-78
2022/04/25 10:10:10;;;;;;;1.30;1.20;;;14.10;99.90;;;;;;5054076;28;20442;-77
2022/04/25 10:12:37;;;;;;;0.50;0.37;;;14.40;99.90;;;;;;5053614;28;20461;-78
2022/04/25 10:15:05;;;;;;;0.50;0.30;;;14.70;99.90;;;;;;5053887;28;20447;-78
2022/04/25 10:17:32;;;;;;;0.50;0.40;;;15.20;99.90;;;;;;5053742;28;20433;-77
2022/04/25 10:20:00;;;;;;;0.50;0.40;;;15.20;99.90;;;;;;5049741;28;20454;-78
2022/04/25 10:22:27;;;;;;;0.50;0.40;;;15.10;99.90;;;;;;5043795;28;20453;-79
2022/04/25 10:24:56;;;;;;;1.07;1.07;;;15.10;99.90;;;;;;5053314;28;20460;-79
2022/04/25 10:27:28;;;;;;;2.90;0.70;;;15.00;99.90;;;;;;5052657;28;20480;-77
2022/04/25 10:29:57;;;;;;;0.50;0.40;;;14.90;99.90;;;;;;5054572;28;20496;-79
2022/04/25 10:32:25;;;;;;;0.50;0.40;;;14.70;99.90;;;;;;5057108;28;20469;-79
2022/04/25 10:34:56;;;;;;;0.63;0.63;;;14.40;99.90;;;;;;5058413;28;20861;-79
2022/04/25 10:37:31;;;;;;;0.80;0.77;;;14.20;99.90;;;;;;5057921;28;20452;-79
2022/04/25 10:40:00;;;;;;;0.50;0.40;;;14.00;99.90;;;;;;5058414;28;20474;-78
2022/04/25 10:45:14;;;;;;;0.50;0.40;;;13.70;99.90;;;;;;5039807;28;20413;-77
2022/04/25 10:47:58;;;;;;;0.50;0.40;;;13.50;99.90;;;;;;5058097;28;20468;-78
2022/04/25 10:50:25;;;;;;;0.50;0.40;;;13.40;99.90;;;;;;5058338;28;20425;-79
2022/04/25 10:53:01;;;;;;;0.50;0.40;;;13.30;99.90;;;;;;5058008;28;20802;-78
2022/04/25 10:55:47;;;;;;;3.27;3.07;;;13.40;99.90;;;;;;5058668;28;20206;-77
2022/04/25 10:58:21;;;;;;;0.50;0.40;;;13.60;99.90;;;;;;5058437;28;20476;-79
2022/04/25 11:00:50;;;;;;;0.50;0.40;;;13.70;99.90;;;;;;5058719;28;20444;-77
2022/04/25 11:03:20;;;;;;;0.50;0.40;;;13.80;99.90;;;;;;5058109;28;20480;-77
2022/04/25 11:05:48;;;;;;;0.50;0.40;;;13.80;99.90;;;;;;5057691;28;20206;-77
2022/04/25 11:08:26;;;;;;;0.50;0.40;;;13.60;99.90;;;;;;5057833;28;20268;-79
2022/04/25 11:11:06;;;;;;;0.50;0.40;;;13.80;99.90;;;;;;5058264;28;20201;-78
2022/04/25 11:13:35;;;;;;;0.50;0.40;;;13.90;99.90;;;;;;5058238;28;20554;-77
2022/04/25 11:16:16;;;;;;;0.50;0.40;;;13.90;99.90;;;;;;5063295;28;20437;-79
2022/04/25 11:18:43;;;;;;;0.50;0.35;;;13.70;99.90;;;;;;5070753;28;20429;-79
2022/04/25 11:21:13;;;;;;;0.50;0.40;;;13.80;99.90;;;;;;5070715;28;20198;-78
2022/04/25 11:23:50;;;;;;;0.50;0.40;;;13.70;99.90;;;;;;5070098;28;20439;-80
2022/04/25 11:26:55;;;;;;;0.60;0.50;;;13.50;99.90;;;;;;5071881;28;20213;-79
2022/04/25 11:29:21;;;;;;;0.50;0.40;;;13.40;99.90;;;;;;5071028;28;20455;-79
2022/04/25 11:31:48;;;;;;;0.50;0.35;;;13.50;99.90;;;;;;5071690;28;20471;-79
2022/04/25 11:34:20;;;;;;;0.50;0.40;;;13.60;99.90;;;;;;5072790;28;20204;-79
2022/04/25 11:36:47;;;;;;;0.50;0.40;;;13.70;99.90;;;;;;5071824;28;20175;-78
2022/04/25 11:41:59;;;;;;;0.50;0.40;;;13.70;99.90;;;;;;5070964;28;20436;-78
2022/04/25 11:44:26;;;;;;;0.93;0.93;;;13.60;99.90;;;;;;5072349;28;20191;-79
2022/04/25 11:46:53;;;;;;;0.50;0.40;;;13.70;99.90;;;;;;5072067;28;21008;-78
2022/04/25 11:49:28;;;;;;;0.50;0.37;;;13.80;99.90;;;;;;5071821;28;21009;-79
2022/04/25 11:51:58;;;;;;;0.50;0.40;;;14.00;99.90;;;;;;5072489;28;20457;-79
2022/04/25 11:54:25;;;;;;;0.50;0.40;;;14.30;99.90;;;;;;5072765;28;20224;-79
2022/04/25 11:56:52;;;;;;;0.60;0.60;;;14.40;99.90;;;;;;5072491;28;20197;-80
2022/04/25 11:59:21;;;;;;;0.50;0.40;;;14.30;99.90;;;;;;5053158;28;20447;-78
2022/04/25 12:01:50;;;;;;;0.50;0.40;;;14.40;99.90;;;;;;5072116;28;20519;-79
2022/04/25 12:04:18;;;;;;;0.50;0.30;;;14.50;99.90;;;;;;5085794;23;20819;-74
2022/04/25 12:06:53;;;;;;;0.50;0.30;;;14.70;99.90;;;;;;5048346;28;20838;-75
2022/04/25 12:17:43;;;;;;;0.50;0.40;;;15.20;99.90;;;;;;5032417;28;20502;-77
2022/04/25 12:20:11;;;;;;;0.70;0.60;;;15.30;99.90;;;;;;5032690;28;20438;-75
2022/04/25 12:22:39;;;;;;;0.50;0.40;;;15.20;99.90;;;;;;5032628;28;20859;-75
2022/04/25 12:25:14;;;;;;;0.50;0.30;;;15.40;99.90;;;;;;5032851;28;20466;-75
2022/04/25 12:28:00;;;;;;;0.50;0.30;;;15.50;99.90;;;;;;5032232;28;20477;-75
2022/04/25 12:30:30;;;;;;;0.60;0.60;;;15.60;99.90;;;;;;5032157;28;20450;-75
2022/04/25 12:33:07;;;;;;;0.50;0.40;;;15.90;99.90;;;;;;5032744;28;20875;-75
2022/04/25 12:35:34;;;;;;;0.50;0.40;;;15.70;99.90;;;;;;5032390;28;20549;-75
2022/04/25 12:38:01;;;;;;;0.50;0.37;;;15.70;99.90;;;;;;5032157;28;20447;-76
2022/04/25 12:40:28;;;;;;;0.50;0.30;;;15.90;99.90;;;;;;5032556;28;20475;-75
2022/04/25 12:42:55;;;;;;;0.50;0.30;;;15.90;99.90;;;;;;5032227;28;20449;-75
2022/04/25 12:45:21;;;;;;;0.50;0.37;;;16.30;99.90;;;;;;5032294;28;20652;-74
2022/04/25 12:47:56;;;;;;;0.93;0.80;;;16.70;99.90;;;;;;5031776;28;20482;-76
2022/04/25 12:50:42;;;;;;;0.50;0.33;;;17.00;99.90;;;;;;5032358;28;20441;-76
2022/04/25 12:53:09;;;;;;;0.50;0.50;;;17.30;99.90;;;;;;5032373;28;20468;-76
2022/04/25 12:55:47;;;;;;;0.50;0.40;;;17.40;99.90;;;;;;5031618;28;20855;-74
2022/04/25 12:58:14;;;;;;;0.60;0.57;;;17.60;99.90;;;;;;5031345;28;20438;-75
2022/04/25 13:00:42;;;;;;;0.57;0.47;;;18.00;99.90;;;;;;5032045;28;20448;-76
2022/04/25 13:03:10;;;;;;;1.53;0.97;;;18.10;99.90;;;;;;5031873;28;20441;-76
2022/04/25 13:05:38;;;;;;;0.50;0.43;;;18.20;99.90;;;;;;5031358;28;20479;-75
2022/04/25 13:08:05;;;;;;;0.50;0.30;;;18.10;99.90;;;;;;5031378;28;20512;-75
2022/04/25 13:10:32;;;;;;;0.50;0.50;;;17.90;99.90;;;;;;5032001;28;20942;-76
2022/04/25 13:12:59;;;;;;;0.50;0.30;;;17.60;99.90;;;;;;5031642;28;20453;-76
2022/04/25 13:15:29;;;;;;;0.50;0.30;;;17.50;99.90;;;;;;5031956;28;20468;-78
2022/04/25 13:17:55;;;;;;;1.23;1.13;;;17.50;99.90;;;;;;5031237;28;20537;-75
2022/04/25 13:20:28;;;;;;;0.50;0.30;;;17.40;99.90;;;;;;5031654;28;20445;-74
2022/04/25 13:22:56;;;;;;;0.50;0.30;;;17.50;99.90;;;;;;5031257;28;20496;-76
2022/04/25 13:25:23;;;;;;;3.33;1.90;;;17.50;99.90;;;;;;5031632;28;20458;-77
2022/04/25 13:27:50;;;;;;;0.50;0.30;;;17.70;99.90;;;;;;5030777;28;20480;-75
2022/04/25 13:30:18;;;;;;;0.60;0.30;;;17.60;99.90;;;;;;5031541;28;20820;-77
2022/04/25 13:32:45;;;;;;;0.50;0.30;;;17.60;99.90;;;;;;5031957;28;20438;-76
2022/04/25 13:35:14;;;;;;;0.50;0.40;;;17.60;99.90;;;;;;5031513;28;20472;-77
2022/04/25 13:37:42;;;;;;;0.50;0.30;;;17.60;99.90;;;;;;5031148;28;20472;-77
2022/04/25 13:40:10;;;;;;;0.70;0.50;;;17.50;99.90;;;;;;5031463;28;20451;-77
2022/04/25 13:42:37;;;;;;;0.90;0.90;;;17.70;99.90;;;;;;5032069;28;20525;-77
2022/04/25 13:45:05;;;;;;;0.50;0.37;;;17.50;99.90;;;;;;5031304;28;20470;-77